createdAt,value
2022-09-23T00:21:31.591Z,169.67
2022-09-23T00:46:37.590Z,167.77
2022-09-23T01:11:47.720Z,171.03
2022-09-23T01:36:54.289Z,164.47
2022-09-23T02:02:01.291Z,166.27
2022-09-23T02:27:09.711Z,160.53
2022-09-23T02:52:13.817Z,157.20
2022-09-23T03:17:21.743Z,159.40
2022-09-23T03:42:27.424Z,163.40
2022-09-23T04:07:31.502Z,152.37
2022-09-23T04:32:36.006Z,162.40
2022-09-23T04:57:40.228Z,163.90
2022-09-23T05:22:44.990Z,232.77
2022-09-23T05:47:49.099Z,217.63
2022-09-23T06:12:53.433Z,209.90
2022-09-23T06:37:57.980Z,199.52
2022-09-23T07:03:02.179Z,206.65
2022-09-23T07:28:07.149Z,222.15
2022-09-23T07:53:11.300Z,219.60
2022-09-23T08:18:15.344Z,219.48
2022-09-23T08:43:22.574Z,179.82
2022-09-23T09:08:29.909Z,182.95
2022-09-23T09:33:45.768Z,175.32
2022-09-23T09:58:51.516Z,181.55
2022-09-23T10:23:58.105Z,190.40
2022-09-23T10:49:17.526Z,206.57
2022-09-23T11:14:28.728Z,198.15
2022-09-23T11:39:35.963Z,190.32
2022-09-23T12:04:53.044Z,199.95
2022-09-23T12:30:03.407Z,214.68
2022-09-23T12:55:22.040Z,210.05
2022-09-23T13:20:38.437Z,208.05
2022-09-23T13:45:43.695Z,242.40
2022-09-23T14:10:48.062Z,195.75
2022-09-23T14:35:54.867Z,206.30
2022-09-23T15:01:00.585Z,215.38
2022-09-23T15:26:06.418Z,202.98
2022-09-23T15:51:14.011Z,193.50
2022-09-23T16:16:21.106Z,184.93
2022-09-23T16:41:25.939Z,181.80
2022-09-23T17:06:30.068Z,187.18
2022-09-23T17:31:35.096Z,213.52
2022-09-23T17:56:39.247Z,180.07
2022-09-23T18:21:44.187Z,194.23
2022-09-23T18:46:52.160Z,196.77
2022-09-23T19:11:56.413Z,196.07
2022-09-23T19:37:01.538Z,224.03
2022-09-23T20:02:05.901Z,189.93
2022-09-23T20:27:10.213Z,207.60
2022-09-23T20:52:14.863Z,209.63
2022-09-23T21:17:19.158Z,201.80
2022-09-23T21:42:24.500Z,185.77
2022-09-23T22:07:28.571Z,193.87
2022-09-23T22:32:54.939Z,185.38
2022-09-23T22:58:10.440Z,195.13
2022-09-23T23:23:25.893Z,185.13
2022-09-23T23:48:34.616Z,185.75
